createdAt,value
2024-01-18T00:00:35.628Z,100395.28
2024-01-18T00:03:03.939Z,100395.25
2024-01-18T00:05:30.880Z,100388.44
2024-01-18T00:07:57.911Z,100389.31
2024-01-18T00:10:28.402Z,100383.38
2024-01-18T00:12:55.945Z,100394.44
2024-01-18T00:15:23.424Z,100400.44
2024-01-18T00:17:50.870Z,100407.25
2024-01-18T00:20:18.072Z,100407.25
2024-01-18T00:22:45.059Z,100410.66
2024-01-18T00:25:12.112Z,100412.38
2024-01-18T00:27:39.125Z,100415.78
2024-01-18T00:30:06.706Z,100418.34
2024-01-18T00:32:33.948Z,100426.03
2024-01-18T00:35:01.069Z,100436.28
2024-01-18T00:37:28.131Z,100441.38
2024-01-18T00:39:55.121Z,100446.47
2024-01-18T00:42:22.319Z,100455.88
2024-01-18T00:44:49.412Z,100456.72
2024-01-18T00:47:16.651Z,100466.06
2024-01-18T00:49:44.994Z,100467.78
2024-01-18T00:52:12.128Z,100467.78
2024-01-18T00:54:39.142Z,100482.28
2024-01-18T00:57:06.360Z,100489.09
2024-01-18T00:59:33.698Z,100487.38
2024-01-18T01:02:00.695Z,100485.69
2024-01-18T01:04:27.584Z,100492.47
2024-01-18T01:06:54.632Z,100497.59
2024-01-18T01:09:21.665Z,100510.34
2024-01-18T01:11:48.559Z,100513.78
2024-01-18T01:14:15.618Z,100514.59
2024-01-18T01:16:42.667Z,100518.03
2024-01-18T01:19:09.663Z,100518.00
2024-01-18T01:21:38.377Z,100511.19
2024-01-18T01:24:05.449Z,100511.19
2024-01-18T01:26:32.476Z,100511.19
2024-01-18T01:28:59.483Z,100529.09
2024-01-18T01:31:26.678Z,100529.97
2024-01-18T01:33:53.761Z,100529.13
2024-01-18T01:36:20.901Z,100527.44
2024-01-18T01:38:47.973Z,100531.69
2024-01-18T01:41:15.332Z,100549.56
2024-01-18T01:44:01.719Z,100549.56
2024-01-18T01:46:29.699Z,100573.38
2024-01-18T01:49:02.509Z,100572.53
2024-01-18T01:51:38.359Z,100580.22
2024-01-18T01:54:06.381Z,100578.50
2024-01-18T01:56:35.957Z,100582.78
2024-01-18T01:59:05.000Z,100594.66
2024-01-18T02:01:32.235Z,100586.13
2024-01-18T02:03:59.526Z,100592.94
2024-01-18T02:06:27.042Z,100598.91
2024-01-18T02:08:54.157Z,100605.69
2024-01-18T02:11:21.671Z,100601.47
2024-01-18T02:13:50.111Z,100597.19
2024-01-18T02:16:17.395Z,100592.94
2024-01-18T02:18:44.401Z,100617.59
2024-01-18T02:21:11.664Z,100617.66
2024-01-18T02:23:40.175Z,100614.28
2024-01-18T02:26:07.428Z,100619.41
2024-01-18T02:28:34.349Z,100636.41
2024-01-18T02:31:01.569Z,100639.78
2024-01-18T02:33:28.760Z,100633.78
2024-01-18T02:35:56.002Z,100637.19
2024-01-18T02:38:23.656Z,100632.94
2024-01-18T02:40:50.649Z,100645.69
2024-01-18T02:43:17.632Z,100643.09
2024-01-18T02:45:44.837Z,100656.72
2024-01-18T02:48:11.992Z,100656.72
2024-01-18T02:50:43.168Z,100664.38
2024-01-18T02:53:09.975Z,100661.03
2024-01-18T02:55:36.914Z,100669.53
2024-01-18T02:58:04.127Z,100672.06
2024-01-18T03:00:31.149Z,100669.50
2024-01-18T03:02:58.168Z,100679.72
2024-01-18T03:05:25.203Z,100678.03
2024-01-18T03:07:52.203Z,100681.44
2024-01-18T03:10:19.188Z,100688.22
2024-01-18T03:12:46.168Z,100693.28
2024-01-18T03:15:13.491Z,100709.47
2024-01-18T03:17:40.569Z,100697.59
2024-01-18T03:20:08.694Z,100698.44
2024-01-18T03:22:38.662Z,100702.72
2024-01-18T03:25:06.239Z,100698.47
2024-01-18T03:27:33.324Z,100706.19
2024-01-18T03:30:00.552Z,100709.59
2024-01-18T03:32:27.659Z,100721.53
2024-01-18T03:34:54.745Z,100719.78
2024-01-18T03:37:21.768Z,100728.31
2024-01-18T03:39:48.780Z,100730.81
2024-01-18T03:42:15.800Z,100729.97
2024-01-18T03:44:42.756Z,100729.94
2024-01-18T03:47:09.720Z,100735.91
2024-01-18T03:49:36.871Z,100735.88
2024-01-18T03:52:03.963Z,100750.34
2024-01-18T03:54:31.005Z,100752.84
2024-01-18T03:56:58.132Z,100762.19
2024-01-18T03:59:25.408Z,100768.19
2024-01-18T04:01:52.293Z,100778.34
2024-01-18T04:04:19.378Z,100772.34
2024-01-18T04:06:46.467Z,100772.31
2024-01-18T04:09:13.531Z,100777.34
2024-01-18T04:11:40.607Z,100781.53
2024-01-18T04:14:07.628Z,100784.09
2024-01-18T04:16:35.551Z,100782.38
2024-01-18T04:19:02.704Z,100782.31
2024-01-18T04:21:30.272Z,100778.88
2024-01-18T04:23:57.549Z,100782.22
2024-01-18T04:26:26.295Z,100785.66
2024-01-18T04:28:53.765Z,100795.88
2024-01-18T04:31:20.694Z,100799.31
2024-01-18T04:33:48.484Z,100793.28
2024-01-18T04:36:15.495Z,100804.28
2024-01-18T04:38:42.913Z,100811.91
2024-01-18T04:41:09.966Z,100811.94
2024-01-18T04:43:36.959Z,100819.56
2024-01-18T04:46:05.505Z,100816.09
2024-01-18T04:48:33.078Z,100817.75
2024-01-18T04:51:00.255Z,100835.59
2024-01-18T04:53:27.278Z,100832.19
2024-01-18T04:55:55.066Z,100842.47
2024-01-18T04:58:22.791Z,100844.22
2024-01-18T05:00:49.823Z,100845.94
2024-01-18T05:03:17.083Z,100841.75
2024-01-18T05:05:44.193Z,100845.97
2024-01-18T05:08:11.166Z,100847.66
2024-01-18T05:10:38.114Z,100838.28
2024-01-18T05:13:05.353Z,100851.84
2024-01-18T05:15:32.422Z,100864.56
2024-01-18T05:18:02.114Z,100867.91
2024-01-18T05:20:29.469Z,100880.69
2024-01-18T05:22:56.485Z,100882.47
2024-01-18T05:25:23.460Z,100882.66
2024-01-18T05:27:50.654Z,100895.56
2024-01-18T05:30:17.698Z,100895.66
2024-01-18T05:32:45.030Z,100902.63
2024-01-18T05:35:11.964Z,100905.31
2024-01-18T05:37:38.850Z,100897.81
2024-01-18T05:40:08.062Z,100903.91
2024-01-18T05:42:35.025Z,100914.25
2024-01-18T05:45:02.436Z,100916.88
2024-01-18T05:47:29.675Z,100905.03
2024-01-18T05:49:57.215Z,100919.56
2024-01-18T05:52:24.220Z,100919.63
2024-01-18T05:54:51.193Z,100931.63
2024-01-18T05:57:18.064Z,100931.72
2024-01-18T05:59:44.977Z,100942.84
2024-01-18T06:02:11.967Z,100938.66
2024-01-18T06:04:39.022Z,100938.72
2024-01-18T06:07:06.164Z,100943.84
2024-01-18T06:09:33.335Z,100958.44
2024-01-18T06:12:00.409Z,100963.56
2024-01-18T06:14:27.421Z,100958.47
2024-01-18T06:16:54.563Z,100957.66
2024-01-18T06:19:21.674Z,100955.97
2024-01-18T06:21:48.782Z,100973.91
2024-01-18T06:24:16.202Z,100982.47
2024-01-18T06:26:43.256Z,100990.16
2024-01-18T06:29:11.745Z,100994.47
2024-01-18T06:31:39.053Z,100991.91
2024-01-18T06:34:06.594Z,100995.34
2024-01-18T06:36:33.699Z,100996.19
2024-01-18T06:39:01.341Z,100998.75
2024-01-18T06:41:28.377Z,101005.59
2024-01-18T06:43:55.505Z,101014.13
2024-01-18T06:46:23.886Z,101014.13
2024-01-18T06:48:58.589Z,101015.81
2024-01-18T06:51:25.824Z,101026.94
2024-01-18T06:53:53.094Z,101026.06
2024-01-18T06:56:20.016Z,101044.81
2024-01-18T06:58:47.059Z,101046.50
2024-01-18T07:01:14.545Z,101040.50
2024-01-18T07:03:43.957Z,101050.69
2024-01-18T07:06:11.349Z,101059.19
2024-01-18T07:08:38.833Z,101065.94
2024-01-18T07:11:06.253Z,101068.44
2024-01-18T07:13:33.381Z,101073.47
2024-01-18T07:16:00.687Z,101072.56
2024-01-18T07:18:28.267Z,101073.38
2024-01-18T07:20:55.474Z,101080.94
2024-01-18T07:23:22.558Z,101086.81
2024-01-18T07:25:49.655Z,101086.75
2024-01-18T07:28:16.683Z,101089.22
2024-01-18T07:30:43.960Z,101096.84
2024-01-18T07:33:11.194Z,101095.97
2024-01-18T07:35:38.418Z,101100.19
2024-01-18T07:38:05.732Z,101101.88
2024-01-18T07:40:32.716Z,101101.91
2024-01-18T07:42:59.755Z,101107.00
2024-01-18T07:45:27.072Z,101112.13
2024-01-18T07:47:54.872Z,101113.81
2024-01-18T07:50:33.573Z,101122.31
2024-01-18T07:53:03.584Z,101122.25
2024-01-18T07:55:30.861Z,101133.28
2024-01-18T07:57:58.140Z,101138.38
2024-01-18T08:00:25.926Z,101134.88
2024-01-18T08:02:53.014Z,101144.16
2024-01-18T08:05:20.063Z,101149.16
2024-01-18T08:07:47.054Z,101156.72
2024-01-18T08:10:14.104Z,101168.56
2024-01-18T08:12:46.567Z,101177.13
2024-01-18T08:15:14.476Z,101178.72
2024-01-18T08:17:45.164Z,101175.25
2024-01-18T08:20:16.023Z,101181.13
2024-01-18T08:22:43.584Z,101188.84
2024-01-18T08:25:14.102Z,101198.09
2024-01-18T08:27:43.415Z,101203.25
2024-01-18T08:30:11.707Z,101218.59
2024-01-18T08:32:38.999Z,101220.28
2024-01-18T08:35:09.615Z,101215.19
2024-01-18T08:37:37.524Z,101233.03
2024-01-18T08:40:05.246Z,101231.25
2024-01-18T08:42:32.372Z,101233.88
2024-01-18T08:44:59.392Z,101235.59
2024-01-18T08:47:28.115Z,101227.09
2024-01-18T08:49:55.441Z,101229.69
2024-01-18T08:52:24.077Z,101248.47
2024-01-18T08:54:53.139Z,101245.94
2024-01-18T08:57:20.904Z,101249.25
2024-01-18T08:59:48.011Z,101262.06
2024-01-18T09:02:23.047Z,101268.06
2024-01-18T09:04:52.277Z,101262.94
2024-01-18T09:07:19.975Z,101276.03
2024-01-18T09:09:47.478Z,101266.22
2024-01-18T09:12:14.990Z,101270.91
2024-01-18T09:14:42.082Z,101266.03
2024-01-18T09:17:11.491Z,101271.38
2024-01-18T09:19:40.223Z,101279.25
2024-01-18T09:22:07.401Z,101282.78
2024-01-18T09:24:34.552Z,101283.72
2024-01-18T09:27:01.572Z,101292.34
2024-01-18T09:29:28.568Z,101296.81
2024-01-18T09:31:58.377Z,101296.97
2024-01-18T09:34:25.452Z,101309.88
2024-01-18T09:36:52.746Z,101313.44
2024-01-18T09:39:19.990Z,101313.50
2024-01-18T09:41:54.528Z,101323.91
2024-01-18T09:44:27.228Z,101325.69
2024-01-18T09:46:55.780Z,101330.91
2024-01-18T09:49:23.046Z,101337.81
2024-01-18T09:51:51.922Z,101339.59
2024-01-18T09:54:19.673Z,101346.50
2024-01-18T09:56:47.744Z,101355.94
2024-01-18T09:59:18.201Z,101361.13
2024-01-18T10:01:46.412Z,101368.00
2024-01-18T10:04:14.977Z,101374.00
2024-01-18T10:06:42.984Z,101368.84
2024-01-18T10:09:12.110Z,101374.00
2024-01-18T10:11:39.125Z,101374.84
2024-01-18T10:14:06.063Z,101370.53
2024-01-18T10:16:37.362Z,101377.38
2024-01-18T10:19:05.325Z,101371.28
2024-01-18T10:21:37.570Z,101367.78
2024-01-18T10:24:05.186Z,101359.13
2024-01-18T10:26:33.049Z,101375.41
2024-01-18T10:29:02.001Z,101380.50
2024-01-18T10:31:32.797Z,101387.31
2024-01-18T10:34:00.179Z,101402.72
2024-01-18T10:36:27.630Z,101394.06
2024-01-18T10:38:55.093Z,101409.44
2024-01-18T10:41:22.236Z,101409.41
2024-01-18T10:43:49.896Z,101417.91
2024-01-18T10:46:18.539Z,101415.28
2024-01-18T10:48:47.739Z,101428.97
2024-01-18T10:51:15.323Z,101425.47
2024-01-18T10:53:44.889Z,101428.84
2024-01-18T10:56:13.770Z,101436.47
2024-01-18T10:58:42.624Z,101439.84
2024-01-18T11:01:09.853Z,101445.78
2024-01-18T11:03:38.250Z,101439.69
2024-01-18T11:06:11.348Z,101442.22
2024-01-18T11:08:41.534Z,101452.47
2024-01-18T11:11:09.424Z,101451.50
2024-01-18T11:13:36.927Z,101456.66
2024-01-18T11:16:05.502Z,101465.13
2024-01-18T11:18:35.754Z,101474.59
2024-01-18T11:21:07.990Z,101471.06
2024-01-18T11:23:37.007Z,101474.44
2024-01-18T11:26:06.163Z,101475.25
2024-01-18T11:28:34.190Z,101481.97
2024-01-18T11:31:01.968Z,101488.72
2024-01-18T11:33:29.796Z,101482.56
2024-01-18T11:36:01.738Z,101479.91
2024-01-18T11:38:31.138Z,101484.09
2024-01-18T11:40:59.020Z,101484.00
2024-01-18T11:43:46.265Z,101487.34
2024-01-18T11:46:15.511Z,101492.44
2024-01-18T11:48:44.174Z,101493.22
2024-01-18T11:51:11.465Z,101498.31
2024-01-18T11:53:39.402Z,101492.09
2024-01-18T11:56:08.461Z,101506.66
2024-01-18T11:58:35.506Z,101503.09
2024-01-18T12:01:02.716Z,101507.25
2024-01-18T12:03:30.032Z,101510.56
2024-01-18T12:05:57.051Z,101517.38
2024-01-18T12:08:24.256Z,101515.53
2024-01-18T12:10:51.501Z,101523.25
2024-01-18T12:13:19.257Z,101527.44
2024-01-18T12:15:47.386Z,101525.63
2024-01-18T12:18:14.614Z,101529.84
2024-01-18T12:20:43.273Z,101528.88
2024-01-18T12:23:17.283Z,101536.59
2024-01-18T12:25:45.642Z,101538.19
2024-01-18T12:28:12.723Z,101534.81
2024-01-18T12:30:44.814Z,101545.84
2024-01-18T12:33:14.088Z,101549.28
2024-01-18T12:35:41.176Z,101550.84
2024-01-18T12:38:08.527Z,101541.22
2024-01-18T12:40:35.886Z,101542.69
2024-01-18T12:43:04.361Z,101544.22
2024-01-18T12:45:34.873Z,101547.50
2024-01-18T12:48:03.916Z,101549.00
2024-01-18T12:50:30.933Z,101547.16
2024-01-18T12:52:59.548Z,101548.97
2024-01-18T12:55:28.400Z,101554.13
2024-01-18T12:57:59.497Z,101542.00
2024-01-18T13:00:26.599Z,101545.38
2024-01-18T13:02:53.859Z,101543.47
2024-01-18T13:05:20.861Z,101544.28
2024-01-18T13:07:50.007Z,101544.00
2024-01-18T13:10:17.051Z,101545.72
2024-01-18T13:12:46.357Z,101544.69
2024-01-18T13:15:13.412Z,101549.75
2024-01-18T13:17:42.688Z,101542.56
2024-01-18T13:20:12.631Z,101541.63
2024-01-18T13:22:40.004Z,101535.41
2024-01-18T13:25:07.233Z,101537.91
2024-01-18T13:27:34.360Z,101549.22
2024-01-18T13:30:01.510Z,101549.28
2024-01-18T13:32:28.694Z,101544.78
2024-01-18T13:34:55.826Z,101541.34
2024-01-18T13:37:30.557Z,101545.94
2024-01-18T13:40:01.812Z,101543.38
2024-01-18T13:42:28.958Z,101540.63
2024-01-18T13:44:56.071Z,101538.91
2024-01-18T13:47:23.145Z,101544.34
2024-01-18T13:49:51.887Z,101536.44
2024-01-18T13:52:21.458Z,101540.63
2024-01-18T13:54:48.627Z,101548.34
2024-01-18T13:57:15.640Z,101549.34
2024-01-18T13:59:42.626Z,101557.00
2024-01-18T14:02:09.654Z,101550.72
2024-01-18T14:04:37.070Z,101561.81
2024-01-18T14:07:04.825Z,101544.47
2024-01-18T14:09:34.390Z,101560.69
2024-01-18T14:12:01.840Z,101547.53
2024-01-18T14:14:28.741Z,101561.41
2024-01-18T14:16:58.763Z,101553.44
2024-01-18T14:19:25.913Z,101556.91
2024-01-18T14:21:53.073Z,101560.34
2024-01-18T14:24:20.065Z,101561.25
2024-01-18T14:26:47.733Z,101553.53
2024-01-18T14:29:14.766Z,101558.31
2024-01-18T14:31:42.085Z,101562.44
2024-01-18T14:34:09.169Z,101555.56
2024-01-18T14:36:36.305Z,101557.66
2024-01-18T14:39:05.308Z,101554.38
2024-01-18T14:41:33.220Z,101578.28
2024-01-18T14:44:00.183Z,101572.94
2024-01-18T14:46:27.162Z,101576.19
2024-01-18T14:48:54.291Z,101582.22
2024-01-18T14:51:21.375Z,101583.81
2024-01-18T14:53:48.507Z,101594.16
2024-01-18T14:56:15.354Z,101601.06
2024-01-18T14:58:44.565Z,101614.03
2024-01-18T15:01:11.826Z,101607.13
2024-01-18T15:03:39.010Z,101614.34
2024-01-18T15:06:08.203Z,101605.78
2024-01-18T15:08:35.183Z,101610.94
2024-01-18T15:11:02.342Z,101617.81
2024-01-18T15:13:29.351Z,101613.41
2024-01-18T15:15:56.523Z,101616.88
2024-01-18T15:18:23.636Z,101616.94
2024-01-18T15:20:50.779Z,101622.16
2024-01-18T15:23:17.839Z,101615.31
2024-01-18T15:25:44.834Z,101628.31
2024-01-18T15:28:12.695Z,101626.66
2024-01-18T15:30:39.774Z,101629.31
2024-01-18T15:33:06.854Z,101627.84
2024-01-18T15:35:33.899Z,101634.03
2024-01-18T15:38:00.847Z,101641.16
2024-01-18T15:40:27.680Z,101643.88
2024-01-18T15:42:54.843Z,101653.44
2024-01-18T15:45:22.150Z,101650.13
2024-01-18T15:47:49.306Z,101659.75
2024-01-18T15:50:16.377Z,101665.19
2024-01-18T15:52:45.265Z,101667.03
2024-01-18T15:55:12.673Z,101670.50
2024-01-18T15:57:39.814Z,101676.69
2024-01-18T16:00:09.561Z,101682.88
2024-01-18T16:02:36.836Z,101684.72
2024-01-18T16:05:07.132Z,101683.97
2024-01-18T16:07:35.527Z,101689.28
2024-01-18T16:10:05.280Z,101687.72
2024-01-18T16:12:32.548Z,101679.25
2024-01-18T16:14:59.809Z,101681.13
2024-01-18T16:17:26.816Z,101688.25
2024-01-18T16:19:53.868Z,101694.53
2024-01-18T16:22:20.903Z,101699.03
2024-01-18T16:24:47.833Z,101698.34
2024-01-18T16:27:14.857Z,101703.75
2024-01-18T16:29:54.255Z,101707.41
2024-01-18T16:32:28.046Z,101705.00
2024-01-18T16:34:55.224Z,101714.69
2024-01-18T16:37:22.272Z,101712.25
2024-01-18T16:39:50.368Z,101715.84
2024-01-18T16:42:17.472Z,101722.88
2024-01-18T16:44:44.446Z,101728.19
2024-01-18T16:47:11.640Z,101715.41
2024-01-18T16:49:38.710Z,101731.06
2024-01-18T16:52:05.920Z,101741.50
2024-01-18T16:54:32.982Z,101737.28
2024-01-18T16:56:59.985Z,101745.16
2024-01-18T16:59:26.973Z,101737.47
2024-01-18T17:01:54.018Z,101754.84
2024-01-18T17:04:21.033Z,101754.91
2024-01-18T17:06:48.131Z,101767.00
2024-01-18T17:09:15.074Z,101761.84
2024-01-18T17:11:42.151Z,101773.97
2024-01-18T17:14:09.192Z,101769.72
2024-01-18T17:16:36.188Z,101778.38
2024-01-18T17:19:04.037Z,101778.41
2024-01-18T17:21:31.272Z,101783.59
2024-01-18T17:23:58.206Z,101787.06
2024-01-18T17:26:26.884Z,101782.78
2024-01-18T17:28:54.973Z,101790.53
2024-01-18T17:31:23.035Z,101799.13
2024-01-18T17:33:50.762Z,101799.16
2024-01-18T17:36:17.732Z,101807.72
2024-01-18T17:38:44.976Z,101800.84
2024-01-18T17:41:12.077Z,101805.97
2024-01-18T17:43:38.965Z,101808.56
2024-01-18T17:46:07.385Z,101806.84
2024-01-18T17:48:37.337Z,101812.81
2024-01-18T17:51:06.662Z,101816.25
2024-01-18T17:53:34.072Z,101817.09
2024-01-18T17:56:04.518Z,101820.50
2024-01-18T17:58:33.145Z,101817.06
2024-01-18T18:01:00.182Z,101820.44
2024-01-18T18:03:27.765Z,101818.69
2024-01-18T18:05:54.945Z,101817.84
2024-01-18T18:08:22.199Z,101821.22
2024-01-18T18:10:49.302Z,101834.09
2024-01-18T18:13:16.269Z,101825.47
2024-01-18T18:15:47.592Z,101828.03
2024-01-18T18:18:18.142Z,101834.00
2024-01-18T18:20:45.216Z,101835.69
2024-01-18T18:23:12.357Z,101836.50
2024-01-18T18:25:39.374Z,101839.91
2024-01-18T18:28:06.685Z,101842.47
2024-01-18T18:30:36.818Z,101842.44
2024-01-18T18:33:06.884Z,101841.50
2024-01-18T18:35:34.049Z,101844.03
2024-01-18T18:38:01.109Z,101853.44
2024-01-18T18:40:30.597Z,101856.84
2024-01-18T18:42:57.570Z,101854.25
2024-01-18T18:45:24.581Z,101859.31
2024-01-18T18:47:52.983Z,101860.97
2024-01-18T18:50:20.021Z,101861.84
2024-01-18T18:52:47.633Z,101862.66
2024-01-18T18:55:14.757Z,101867.75
2024-01-18T18:57:41.791Z,101872.00
2024-01-18T19:00:09.270Z,101869.41
2024-01-18T19:02:36.398Z,101877.13
2024-01-18T19:05:05.134Z,101875.34
2024-01-18T19:07:32.132Z,101883.00
2024-01-18T19:09:59.075Z,101888.09
2024-01-18T19:12:26.382Z,101885.44
2024-01-18T19:14:53.835Z,101885.41
2024-01-18T19:17:21.018Z,101887.91
2024-01-18T19:19:47.982Z,101892.16
2024-01-18T19:22:15.042Z,101894.69
2024-01-18T19:24:42.064Z,101898.09
2024-01-18T19:27:09.418Z,101899.81
2024-01-18T19:29:36.660Z,101901.53
2024-01-18T19:32:05.116Z,101915.31
2024-01-18T19:34:32.120Z,101910.25
2024-01-18T19:36:59.167Z,101907.72
2024-01-18T19:39:32.236Z,101908.66
2024-01-18T19:42:01.947Z,101910.44
2024-01-18T19:44:28.968Z,101913.03
2024-01-18T19:46:55.946Z,101917.31
2024-01-18T19:49:24.965Z,101914.69
2024-01-18T19:51:51.991Z,101918.00
2024-01-18T19:54:18.975Z,101916.19
2024-01-18T19:56:46.156Z,101916.06
2024-01-18T19:59:13.196Z,101916.81
2024-01-18T20:01:40.144Z,101920.22
2024-01-18T20:04:07.156Z,101928.69
2024-01-18T20:06:34.318Z,101925.25
2024-01-18T20:09:01.318Z,101933.09
2024-01-18T20:11:28.793Z,101932.09
2024-01-18T20:13:55.912Z,101932.09
2024-01-18T20:16:22.977Z,101931.13
2024-01-18T20:18:52.255Z,101934.41
2024-01-18T20:21:19.769Z,101928.34
2024-01-18T20:23:47.026Z,101929.13
2024-01-18T20:26:16.111Z,101931.63
2024-01-18T20:28:43.893Z,101932.41
2024-01-18T20:31:11.346Z,101930.66
2024-01-18T20:33:41.350Z,101934.91
2024-01-18T20:36:08.537Z,101941.69
2024-01-18T20:38:35.568Z,101927.09
2024-01-18T20:41:03.120Z,101932.19
2024-01-18T20:43:30.113Z,101938.03
2024-01-18T20:45:57.311Z,101936.31
2024-01-18T20:48:24.516Z,101939.75
2024-01-18T20:50:51.715Z,101944.06
2024-01-18T20:53:18.799Z,101942.38
2024-01-18T20:55:45.797Z,101936.50
2024-01-18T20:58:12.898Z,101939.97
2024-01-18T21:00:40.772Z,101948.53
2024-01-18T21:03:08.923Z,101946.06
2024-01-18T21:05:35.922Z,101949.47
2024-01-18T21:08:02.946Z,101946.00
2024-01-18T21:10:30.042Z,101954.53
2024-01-18T21:12:57.137Z,101971.72
2024-01-18T21:15:24.227Z,101969.28
2024-01-18T21:17:51.326Z,101974.66
2024-01-18T21:20:18.346Z,101972.06
2024-01-18T21:22:45.433Z,101976.09
2024-01-18T21:25:12.409Z,101984.44
2024-01-18T21:27:39.360Z,101986.84
2024-01-18T21:30:07.086Z,101985.03
2024-01-18T21:32:35.064Z,101988.31
2024-01-18T21:35:02.135Z,101992.72
2024-01-18T21:37:29.242Z,101992.09
2024-01-18T21:39:56.229Z,101982.09
2024-01-18T21:42:23.373Z,101978.75
2024-01-18T21:44:50.666Z,101990.66
2024-01-18T21:47:18.004Z,101991.50
2024-01-18T21:49:45.501Z,101988.75
2024-01-18T21:52:13.263Z,101990.19
2024-01-18T21:54:40.812Z,101994.28
2024-01-18T21:57:08.035Z,102001.78
2024-01-18T21:59:40.057Z,102008.50
2024-01-18T22:02:12.716Z,102009.25
2024-01-18T22:04:40.696Z,102004.78
2024-01-18T22:07:08.520Z,102004.69
2024-01-18T22:09:41.826Z,102001.25
2024-01-18T22:12:10.598Z,102002.19
2024-01-18T22:14:37.658Z,101995.44
2024-01-18T22:17:05.045Z,101993.84
2024-01-18T22:19:43.130Z,101993.84
2024-01-18T22:22:19.410Z,102002.50
2024-01-18T22:24:46.698Z,101999.19
2024-01-18T22:27:15.132Z,101994.84
2024-01-18T22:29:43.106Z,101985.41
2024-01-18T22:32:13.872Z,101993.91
2024-01-18T22:34:42.207Z,101988.03
2024-01-18T22:37:09.153Z,101995.81
2024-01-18T22:39:36.096Z,102003.63
2024-01-18T22:42:03.255Z,101999.44
2024-01-18T22:44:30.219Z,102008.88
2024-01-18T22:46:57.286Z,102010.53
2024-01-18T22:49:24.404Z,101959.53
2024-01-18T22:51:51.540Z,102006.88
2024-01-18T22:54:18.532Z,102004.13
2024-01-18T22:56:46.505Z,102011.72
2024-01-18T22:59:13.684Z,102008.31
2024-01-18T23:01:40.714Z,102010.09
2024-01-18T23:04:07.821Z,102012.72
2024-01-18T23:06:35.858Z,102016.22
2024-01-18T23:09:02.919Z,102012.78
2024-01-18T23:11:29.929Z,102014.50
2024-01-18T23:13:58.848Z,102012.75
2024-01-18T23:16:27.072Z,102011.06
2024-01-18T23:18:54.614Z,102013.56
2024-01-18T23:21:21.836Z,102015.28
2024-01-18T23:23:51.194Z,102012.66
2024-01-18T23:26:19.018Z,102022.94
2024-01-18T23:28:46.121Z,102029.72
2024-01-18T23:31:13.142Z,102031.38
2024-01-18T23:33:40.266Z,102028.88
2024-01-18T23:36:07.576Z,102031.44
2024-01-18T23:38:34.590Z,102021.97
2024-01-18T23:41:01.620Z,102028.84
2024-01-18T23:43:28.634Z,102033.03
2024-01-18T23:45:55.655Z,102031.19
2024-01-18T23:48:22.756Z,102027.66
2024-01-18T23:50:49.966Z,102031.88
2024-01-18T23:53:17.096Z,102032.66
2024-01-18T23:55:44.171Z,102027.38
2024-01-18T23:58:11.173Z,102031.81
